< Typhoon 202215 2022 Season Typhoon 202217 >
Typhoon 202216 (NORU)
General InformationDetailed Track InformationTrack Information on Google MapsForecast History on Google MapsAccess Analytics MapList of All Images || NewsDisaster Info.JMA Disaster Info. XMLWeblogTrackbackTyphoon FrontTwiphoonTyphoon Now!Typhoon ImaginationResourceGoogle EarthGE AnimationAtom FeedGeoJSON
Detalied Best Track Wind (Time Zone = UTC)
Year Month Day Hour Lat. Long. Wind (kt) Gust (kt) Direc. of Major Storm Axis Radius of Major Storm Axis (nm) Radius of Minor Storm Axis (nm) Direc. of Major Gale Axis Radius of Major Gale Axis (nm) Radius of Minor Gale Axis (nm) Image
2022 9 22 06 17.9 134.6 30 45 - - - - - - Image
2022 9 22 09 17.9 134.5 30 45 - - - - - - Image
2022 9 22 12 18.0 134.3 30 45 - - - - - - Image
2022 9 22 15 18.0 134.1 30 45 - - - - - - Image
2022 9 22 18 18.0 133.5 30 45 - - - - - - Image
2022 9 22 21 17.9 133.2 30 45 - - - - - - Image
2022 9 23 00 17.5 132.2 30 45 - - - - - - Image
2022 9 23 03 17.7 131.8 30 45 - - - - - - Image
2022 9 23 06 17.7 131.3 35 50 - - - symmetric 90 90 Image
2022 9 23 09 17.7 131.0 35 50 - - - symmetric 90 90 Image
2022 9 23 12 17.5 130.6 40 60 - - - symmetric 90 90 Image
2022 9 23 15 17.1 130.1 40 60 - - - symmetric 90 90 Image
2022 9 23 18 16.9 129.7 45 65 - - - W 120 90 Image
2022 9 23 21 16.5 128.4 45 65 - - - W 120 90 Image
2022 9 24 00 16.4 128.0 50 70 - - - SW 150 120 Image
2022 9 24 03 16.1 127.5 55 80 symmetric 20 20 SW 150 120 Image
2022 9 24 06 15.8 126.9 60 85 symmetric 30 30 SW 150 120 Image
2022 9 24 09 15.8 126.6 65 95 symmetric 30 30 SW 150 120 Image
2022 9 24 12 15.5 126.0 70 100 symmetric 40 40 SW 150 120 Image
2022 9 24 15 15.3 125.4 75 105 symmetric 50 50 SW 150 120 Image
2022 9 24 18 15.2 124.8 85 120 symmetric 50 50 SW 150 120 Image
2022 9 24 21 15.0 124.2 90 130 symmetric 50 50 SW 150 120 Image
2022 9 25 00 15.0 123.6 95 135 symmetric 50 50 symmetric 120 120 Image
2022 9 25 03 15.0 123.1 95 135 symmetric 50 50 symmetric 120 120 Image
2022 9 25 06 15.0 122.5 95 135 symmetric 50 50 symmetric 120 120 Image
2022 9 25 09 15.0 122.1 95 135 symmetric 50 50 symmetric 120 120 Image
2022 9 25 12 15.2 121.4 85 120 symmetric 40 40 symmetric 120 120 Image
2022 9 25 15 15.5 120.7 80 115 symmetric 35 35 symmetric 120 120 Image
2022 9 25 18 15.5 119.8 75 105 symmetric 35 35 symmetric 90 90 Image
2022 9 25 21 15.8 119.2 75 105 symmetric 35 35 symmetric 90 90 Image
2022 9 26 00 16.2 118.4 70 100 symmetric 35 35 SW 150 90 Image
2022 9 26 03 16.0 117.8 70 100 symmetric 35 35 SW 150 90 Image
2022 9 26 06 15.9 116.9 65 95 symmetric 35 35 SW 150 90 Image
2022 9 26 09 15.9 116.3 65 95 symmetric 35 35 SW 150 90 Image
2022 9 26 12 16.0 115.6 65 95 symmetric 35 35 SW 150 90 Image
2022 9 26 15 16.0 114.4 70 100 symmetric 35 35 W 210 150 Image
2022 9 26 18 15.9 113.6 75 105 symmetric 35 35 W 210 150 Image
2022 9 26 21 15.6 112.8 80 115 symmetric 40 40 W 210 150 Image
2022 9 27 00 15.5 112.1 85 120 symmetric 70 70 W 210 150 Image
2022 9 27 03 15.3 111.8 85 120 symmetric 70 70 W 210 150 Image
2022 9 27 06 15.6 111.3 85 120 symmetric 70 70 NW 210 150 Image
2022 9 27 09 15.7 110.8 85 120 symmetric 70 70 NW 210 150 Image
2022 9 27 12 15.8 110.0 85 120 symmetric 70 70 NW 210 150 Image
2022 9 27 15 15.9 109.6 85 120 symmetric 70 70 NW 210 150 Image
2022 9 27 18 16.1 108.8 80 115 symmetric 70 70 NW 210 150 Image
2022 9 27 21 16.1 108.6 75 105 symmetric 60 60 NW 210 150 Image
2022 9 28 00 15.9 107.6 55 80 symmetric 60 60 NW 210 150 Image
2022 9 28 03 15.9 107.5 50 70 - - - NW 210 150 Image
2022 9 28 06 15.9 107.3 45 65 - - - N 270 150 Image
2022 9 28 09 15.9 105.3 45 65 - - - N 270 150 Image
2022 9 28 12 16.0 105.0 0 0 - - - - - - Image
Japan Meteorological Agency Best Track Data | Correction Date : 2022-09-28
< Typhoon 202215 2022 Season Typhoon 202217 >

Help